Time;durP1;ratioP1;P1;durP2;ratioP2;P2;SDS_P1;SDS_P2;PMS_P1;PMS_P2;Temp;Humidity;BMP_temperature;BMP_pressure;BME280_temperature;BME280_humidity;BME280_pressure;Samples;Min_cycle;Max_cycle;Signal;HPM_P1;HPM_P2
2022/04/01 00:01:19;;;;;;;;;;;;;;;0.70;75.90;98572.56;5092896;28;20332;-61
2022/04/01 00:03:44;;;;;;;;;;;;;;;0.53;76.42;98574.69;5091258;28;19924;-62
2022/04/01 00:06:10;;;;;;;;;;;;;;;0.50;76.73;98562.03;5091357;28;19936;-60
2022/04/01 00:08:36;;;;;;;;;;;;;;;0.48;76.69;98564.03;5073079;28;19930;-62
2022/04/01 00:11:01;;;;;;;;;;;;;;;0.49;76.27;98569.03;5072473;28;19934;-61
2022/04/01 00:13:27;;;;;;;;;;;;;;;0.44;77.19;98563.59;5071164;28;20421;-61
2022/04/01 00:15:52;;;;;;;;;;;;;;;0.47;76.43;98565.81;5071989;28;19924;-62
2022/04/01 00:18:18;;;;;;;;;;;;;;;0.37;76.72;98565.38;5071004;28;20038;-61
2022/04/01 00:20:43;;;;;;;;;;;;;;;0.41;77.04;98569.19;5070986;28;19932;-62
2022/04/01 00:23:09;;;;;;;;;;;;;;;0.38;76.82;98562.59;5070944;28;19924;-62
2022/04/01 00:25:34;;;;;;;;;;;;;;;0.44;77.22;98571.41;5071879;28;19972;-61
2022/04/01 00:28:00;;;;;;;;;;;;;;;0.40;77.02;98591.06;5071974;28;19924;-63
2022/04/01 00:30:25;;;;;;;;;;;;;;;0.43;76.62;98585.47;5070846;28;19929;-62
2022/04/01 00:32:51;;;;;;;;;;;;;;;0.36;77.21;98577.59;5070642;28;19924;-63
2022/04/01 00:35:16;;;;;;;;;;;;;;;0.42;77.02;98576.03;5070157;28;19928;-60
2022/04/01 00:37:42;;;;;;;;;;;;;;;0.41;77.15;98584.84;5070662;28;20014;-63
2022/04/01 00:40:10;;;;;;;;;;;;;;;0.51;76.72;98594.94;5071933;28;19940;-60
2022/04/01 00:42:36;;;;;;;;;;;;;;;0.44;76.99;98587.06;5070766;28;19931;-62
2022/04/01 00:45:02;;;;;;;;;;;;;;;0.36;76.86;98582.81;5072763;28;19929;-61
2022/04/01 00:47:29;;;;;;;;;;;;;;;0.37;76.76;98588.84;5072051;28;19928;-61
2022/04/01 00:49:55;;;;;;;;;;;;;;;0.32;76.72;98599.03;5070424;28;19929;-61
2022/04/01 00:52:22;;;;;;;;;;;;;;;0.40;76.72;98596.28;5070804;28;20301;-62
2022/04/01 00:54:48;;;;;;;;;;;;;;;0.23;76.79;98593.16;5088613;28;19968;-62
2022/04/01 00:57:14;;;;;;;;;;;;;;;0.29;77.28;98594.19;5097366;28;19989;-61
2022/04/01 00:59:40;;;;;;;;;;;;;;;0.36;76.83;98593.25;5097355;28;19928;-61
2022/04/01 01:02:08;;;;;;;;;;;;;;;0.34;77.36;98597.03;5080511;28;19939;-61
2022/04/01 01:04:34;;;;;;;;;;;;;;;0.40;77.36;98598.88;5097356;28;20022;-60
2022/04/01 01:07:01;;;;;;;;;;;;;;;0.32;76.86;98593.81;5080335;28;20015;-61
2022/04/01 01:09:26;;;;;;;;;;;;;;;0.28;77.14;98593.38;5097528;28;19949;-61
2022/04/01 01:11:52;;;;;;;;;;;;;;;0.33;77.24;98601.44;5098402;28;19931;-61
2022/04/01 01:14:28;;;;;;;;;;;;;;;0.31;77.33;98597.41;5081122;28;19974;-62
2022/04/01 01:16:54;;;;;;;;;;;;;;;0.32;77.03;98596.41;5060260;28;19928;-60
2022/04/01 01:19:20;;;;;;;;;;;;;;;0.33;76.73;98595.44;5076795;28;19970;-62
2022/04/01 01:21:46;;;;;;;;;;;;;;;0.36;76.39;98590.63;5082650;28;20023;-58
2022/04/01 01:24:15;;;;;;;;;;;;;;;0.31;76.66;98594.81;5097419;28;20023;-61
2022/04/01 01:26:43;;;;;;;;;;;;;;;0.35;76.50;98596.03;5097229;28;19981;-60
2022/04/01 01:29:09;;;;;;;;;;;;;;;0.28;76.58;98600.41;5098387;28;19924;-61
2022/04/01 01:31:34;;;;;;;;;;;;;;;0.31;76.95;98603.44;5097172;28;20951;-60
2022/04/01 01:34:00;;;;;;;;;;;;;;;0.31;76.98;98608.66;5097735;28;19924;-59
2022/04/01 01:36:26;;;;;;;;;;;;;;;0.34;76.78;98604.84;5080335;28;19935;-59
2022/04/01 01:38:52;;;;;;;;;;;;;;;0.41;76.79;98608.31;5096878;28;20300;-59
2022/04/01 01:41:19;;;;;;;;;;;;;;;0.43;76.18;98614.13;5096814;28;19928;-59
2022/04/01 01:43:45;;;;;;;;;;;;;;;0.42;76.63;98612.53;5098386;28;19924;-60
2022/04/01 01:46:11;;;;;;;;;;;;;;;0.46;75.93;98616.38;5097071;28;19928;-62
2022/04/01 01:48:36;;;;;;;;;;;;;;;0.42;76.40;98615.16;5096861;28;19924;-60
2022/04/01 01:56:31;;;;;;;;;;;;;;;0.34;76.56;98628.31;5096497;28;19928;-59
2022/04/01 01:59:00;;;;;;;;;;;;;;;0.30;76.78;98624.50;5096491;28;19967;-61
2022/04/01 02:01:26;;;;;;;;;;;;;;;0.32;76.71;98625.88;5097215;28;19978;-61
2022/04/01 02:03:53;;;;;;;;;;;;;;;0.34;76.81;98621.31;5097135;28;19924;-60
2022/04/01 02:06:21;;;;;;;;;;;;;;;0.28;76.42;98635.09;5076769;28;19935;-60
2022/04/01 02:08:47;;;;;;;;;;;;;;;0.33;76.91;98629.31;5093925;28;20369;-56
2022/04/01 02:11:13;;;;;;;;;;;;;;;0.30;76.48;98642.75;5083700;28;19928;-60
2022/04/01 02:13:39;;;;;;;;;;;;;;;0.20;77.06;98630.81;5073245;28;20427;-59
2022/04/01 02:16:04;;;;;;;;;;;;;;;0.23;76.84;98643.47;5073271;28;19996;-58
2022/04/01 02:18:30;;;;;;;;;;;;;;;0.10;77.20;98637.38;5073201;28;19924;-59
2022/04/01 02:20:56;;;;;;;;;;;;;;;0.11;77.81;98631.16;5073089;28;19928;-57
2022/04/01 02:23:22;;;;;;;;;;;;;;;-0.01;78.13;98631.66;5056340;28;20011;-61
2022/04/01 02:25:47;;;;;;;;;;;;;;;-0.05;78.10;98642.66;5074517;28;20066;-62
2022/04/01 02:28:13;;;;;;;;;;;;;;;-0.09;77.74;98638.78;5074496;28;20301;-60
2022/04/01 02:30:38;;;;;;;;;;;;;;;-0.07;77.97;98637.63;5072876;28;19986;-61
2022/04/01 02:33:28;;;;;;;;;;;;;;;-0.04;78.34;98641.66;5073144;28;19971;-60
2022/04/01 02:35:58;;;;;;;;;;;;;;;-0.02;78.08;98631.84;5072861;28;20333;-60
2022/04/01 02:38:25;;;;;;;;;;;;;;;0.01;77.77;98639.28;5073054;28;20053;-59
2022/04/01 02:40:54;;;;;;;;;;;;;;;-0.05;77.94;98630.44;5072360;28;19929;-61
2022/04/01 02:43:20;;;;;;;;;;;;;;;-0.07;78.05;98650.66;5072650;28;19974;-58
2022/04/01 02:45:48;;;;;;;;;;;;;;;-0.05;78.06;98640.03;5072571;28;20278;-61
2022/04/01 02:48:14;;;;;;;;;;;;;;;-0.11;78.19;98646.81;5072746;28;19924;-61
2022/04/01 02:51:09;;;;;;;;;;;;;;;-0.05;78.39;98640.84;5073745;28;20315;-58
2022/04/01 02:53:35;;;;;;;;;;;;;;;-0.07;78.20;98648.03;5055917;28;19986;-59
2022/04/01 02:56:02;;;;;;;;;;;;;;;-0.10;78.25;98645.00;5072334;28;19928;-59
2022/04/01 02:58:28;;;;;;;;;;;;;;;-0.09;77.80;98649.22;5072757;28;20022;-59
2022/04/01 03:00:54;;;;;;;;;;;;;;;-0.04;77.68;98641.66;5072311;28;20460;-60
2022/04/01 03:03:22;;;;;;;;;;;;;;;0.01;77.45;98644.50;5072362;28;20289;-61
2022/04/01 03:05:48;;;;;;;;;;;;;;;0.02;77.50;98646.13;5072295;28;19939;-60
2022/04/01 03:08:13;;;;;;;;;;;;;;;0.02;77.53;98653.94;5075079;28;19963;-59
2022/04/01 03:10:39;;;;;;;;;;;;;;;-0.12;77.70;98649.59;5075490;28;19928;-60
2022/04/01 03:13:09;;;;;;;;;;;;;;;-0.08;77.36;98648.25;5092368;28;19931;-60
2022/04/01 03:16:13;;;;;;;;;;;;;;;-0.11;77.65;98672.88;5070771;28;19929;-60
2022/04/01 03:18:57;;;;;;;;;;;;;;;-0.17;77.63;98665.78;5053623;28;19924;-60
2022/04/01 03:21:24;;;;;;;;;;;;;;;-0.13;77.58;98661.00;5074964;28;20014;-62
2022/04/01 03:23:50;;;;;;;;;;;;;;;-0.15;77.46;98655.16;5091605;28;19930;-62
2022/04/01 03:26:17;;;;;;;;;;;;;;;-0.07;77.79;98663.66;5086181;28;19970;-59
2022/04/01 03:29:18;;;;;;;;;;;;;;;-0.06;76.66;98674.91;5050656;28;19924;-58
2022/04/01 03:31:45;;;;;;;;;;;;;;;-0.15;76.69;98666.38;5079267;28;20423;-58
2022/04/01 03:34:12;;;;;;;;;;;;;;;-0.11;76.71;98672.88;5091888;28;19924;-60
2022/04/01 03:36:39;;;;;;;;;;;;;;;-0.14;76.51;98656.81;5091961;28;19955;-60
2022/04/01 03:39:04;;;;;;;;;;;;;;;-0.08;76.97;98669.09;5091810;28;19924;-58
2022/04/01 03:41:36;;;;;;;;;;;;;;;-0.07;76.24;98668.88;5091510;28;19971;-60
2022/04/01 03:44:03;;;;;;;;;;;;;;;-0.21;76.57;98668.94;5091683;28;19924;-60
2022/04/01 03:46:47;;;;;;;;;;;;;;;-0.17;77.04;98680.63;5074245;28;19935;-58
2022/04/01 03:49:13;;;;;;;;;;;;;;;-0.14;76.89;98672.44;5074842;28;19970;-59
2022/04/01 03:51:40;;;;;;;;;;;;;;;-0.07;76.38;98661.06;5091256;28;19943;-60
2022/04/01 03:54:05;;;;;;;;;;;;;;;-0.07;76.49;98663.66;5091708;28;19924;-59
2022/04/01 03:56:52;;;;;;;;;;;;;;;-0.07;76.47;98673.28;5092585;28;19932;-59
2022/04/01 03:59:42;;;;;;;;;;;;;;;-0.15;76.93;98666.38;5092568;28;20416;-59
2022/04/01 04:02:26;;;;;;;;;;;;;;;-0.06;76.94;98670.50;5091946;28;19924;-61
2022/04/01 04:04:54;;;;;;;;;;;;;;;-0.05;76.69;98671.31;5084112;28;20030;-60
2022/04/01 04:07:20;;;;;;;;;;;;;;;-0.09;77.10;98672.66;5070939;28;20397;-59
2022/04/01 04:09:47;;;;;;;;;;;;;;;-0.05;76.49;98681.72;5051281;28;19942;-59
2022/04/01 04:12:13;;;;;;;;;;;;;;;0.01;75.78;98681.00;5034403;28;19929;-59
2022/04/01 04:14:42;;;;;;;;;;;;;;;0.07;75.92;98672.41;5050812;28;19928;-59
2022/04/01 04:17:16;;;;;;;;;;;;;;;0.12;75.12;98674.44;5051000;28;19925;-58
2022/04/01 04:19:42;;;;;;;;;;;;;;;0.19;74.97;98683.16;5050881;28;19943;-59
2022/04/01 04:22:12;;;;;;;;;;;;;;;0.14;75.33;98677.69;5071373;28;19924;-62
2022/04/01 04:24:47;;;;;;;;;;;;;;;0.12;75.12;98677.06;5050648;28;19935;-60
2022/04/01 04:27:15;;;;;;;;;;;;;;;0.10;75.20;98669.44;5050566;28;20388;-61
2022/04/01 04:29:51;;;;;;;;;;;;;;;0.11;74.79;98681.47;5033456;28;19936;-62
2022/04/01 04:32:36;;;;;;;;;;;;;;;0.16;74.49;98688.75;5067251;28;19969;-59
2022/04/01 04:35:04;;;;;;;;;;;;;;;0.10;74.97;98690.28;5050681;28;19929;-62
2022/04/01 04:37:32;;;;;;;;;;;;;;;0.05;74.91;98690.03;5050417;28;20513;-62
2022/04/01 04:39:58;;;;;;;;;;;;;;;0.11;74.65;98710.13;5067103;28;20047;-62
2022/04/01 04:42:25;;;;;;;;;;;;;;;0.11;74.29;98686.69;5059468;28;20023;-61
2022/04/01 04:44:50;;;;;;;;;;;;;;;0.07;75.38;98697.69;5081193;28;20396;-59
2022/04/01 04:47:25;;;;;;;;;;;;;;;0.07;74.71;98706.31;5042171;28;20385;-56
2022/04/01 04:49:53;;;;;;;;;;;;;;;0.06;74.51;98699.47;5070544;28;20313;-57
2022/04/01 04:52:19;;;;;;;;;;;;;;;0.06;74.35;98709.91;5070558;28;19924;-59
2022/04/01 04:54:48;;;;;;;;;;;;;;;0.07;74.17;98714.13;5070475;28;19929;-58
2022/04/01 04:57:21;;;;;;;;;;;;;;;0.06;73.82;98722.94;5054614;28;19924;-58
2022/04/01 04:59:48;;;;;;;;;;;;;;;0.13;73.53;98723.00;5070053;28;20317;-58
2022/04/01 05:02:19;;;;;;;;;;;;;;;0.15;73.96;98707.97;5066921;28;19924;-58
2022/04/01 05:05:04;;;;;;;;;;;;;;;0.22;73.07;98720.06;5081837;28;19935;-59
2022/04/01 05:08:07;;;;;;;;;;;;;;;0.22;73.10;98716.66;5075017;28;19964;-59
2022/04/01 05:10:50;;;;;;;;;;;;;;;0.22;73.40;98719.25;5073325;28;19980;-61
2022/04/01 05:13:21;;;;;;;;;;;;;;;0.22;73.06;98725.28;5055684;28;19928;-61
2022/04/01 05:16:07;;;;;;;;;;;;;;;0.36;72.60;98715.78;5072098;28;19932;-63
2022/04/01 05:18:45;;;;;;;;;;;;;;;0.34;72.30;98716.97;5089198;28;19959;-61
2022/04/01 05:21:18;;;;;;;;;;;;;;;0.42;72.05;98737.69;5066059;28;20040;-62
2022/04/01 05:23:54;;;;;;;;;;;;;;;0.51;71.98;98725.31;5092338;28;19977;-61
2022/04/01 05:26:23;;;;;;;;;;;;;;;0.46;71.66;98731.09;5091839;28;20391;-61
2022/04/01 05:29:13;;;;;;;;;;;;;;;0.55;70.84;98734.38;5087282;28;19924;-62
2022/04/01 05:31:55;;;;;;;;;;;;;;;0.62;70.94;98730.03;5072259;28;20023;-61
2022/04/01 05:34:39;;;;;;;;;;;;;;;0.65;70.93;98730.47;5088751;28;20027;-61
2022/04/01 05:37:06;;;;;;;;;;;;;;;0.70;70.32;98731.69;5088988;28;20023;-61
2022/04/01 05:39:36;;;;;;;;;;;;;;;0.90;70.44;98727.41;5057200;28;19928;-60
2022/04/01 05:42:07;;;;;;;;;;;;;;;0.97;69.50;98724.84;5072183;28;19931;-61
2022/04/01 05:44:38;;;;;;;;;;;;;;;0.88;69.44;98732.00;5073728;28;19924;-60
2022/04/01 05:47:07;;;;;;;;;;;;;;;0.83;70.02;98719.53;5074623;28;19930;-61
2022/04/01 05:49:35;;;;;;;;;;;;;;;0.95;69.41;98725.03;5073509;28;19924;-62
2022/04/01 05:52:01;;;;;;;;;;;;;;;0.92;69.35;98722.81;5073426;28;19928;-61
2022/04/01 05:54:29;;;;;;;;;;;;;;;0.94;68.97;98728.63;5057358;28;19928;-61
2022/04/01 05:56:54;;;;;;;;;;;;;;;0.89;69.27;98712.75;5074281;28;19924;-61
2022/04/01 05:59:21;;;;;;;;;;;;;;;1.03;69.87;98711.84;5072873;28;19925;-61
2022/04/01 06:01:47;;;;;;;;;;;;;;;1.18;69.27;98716.94;5072672;28;19935;-60
2022/04/01 06:04:28;;;;;;;;;;;;;;;1.14;68.71;98711.28;5072585;28;20313;-64
2022/04/01 06:06:54;;;;;;;;;;;;;;;1.08;68.78;98711.25;5070800;28;19928;-61
2022/04/01 06:09:30;;;;;;;;;;;;;;;1.08;68.89;98719.88;5072484;28;19924;-59
2022/04/01 06:12:21;;;;;;;;;;;;;;;0.98;68.59;98724.66;5091877;28;19928;-60
2022/04/01 06:15:24;;;;;;;;;;;;;;;1.01;68.59;98723.47;5077629;28;19928;-60
2022/04/01 06:18:26;;;;;;;;;;;;;;;1.05;68.50;98740.34;5108715;28;20451;-60
2022/04/01 06:20:52;;;;;;;;;;;;;;;0.99;68.39;98723.66;5112072;28;19934;-60
2022/04/01 06:23:24;;;;;;;;;;;;;;;1.08;68.46;98730.31;5071547;28;20406;-59
2022/04/01 06:25:54;;;;;;;;;;;;;;;1.02;68.00;98738.91;5090766;28;20331;-61
2022/04/01 06:28:24;;;;;;;;;;;;;;;1.14;67.13;98718.31;5093780;28;20072;-62
2022/04/01 06:30:55;;;;;;;;;;;;;;;1.04;66.40;98728.31;5089786;28;19955;-62
2022/04/01 06:33:40;;;;;;;;;;;;;;;0.99;66.67;98734.09;5074004;28;19972;-61
2022/04/01 06:36:35;;;;;;;;;;;;;;;1.12;65.72;98725.53;5065764;28;19982;-60
2022/04/01 06:39:01;;;;;;;;;;;;;;;1.07;65.95;98733.13;5067601;28;19932;-62
2022/04/01 06:41:28;;;;;;;;;;;;;;;1.14;65.29;98733.97;5051413;28;19967;-61
2022/04/01 06:44:01;;;;;;;;;;;;;;;1.29;64.61;98726.00;5051559;28;20442;-61
2022/04/01 06:46:48;;;;;;;;;;;;;;;1.30;64.65;98730.25;5073275;28;20482;-59
2022/04/01 06:49:15;;;;;;;;;;;;;;;1.40;64.11;98733.31;5068616;28;19924;-60
2022/04/01 06:51:44;;;;;;;;;;;;;;;1.09;64.62;98737.19;5070043;28;19939;-60
2022/04/01 06:54:28;;;;;;;;;;;;;;;1.20;64.75;98730.59;5070929;28;20448;-61
2022/04/01 06:57:14;;;;;;;;;;;;;;;1.48;64.18;98733.16;5080827;28;20026;-61
2022/04/01 06:59:58;;;;;;;;;;;;;;;1.53;63.82;98727.31;5088715;28;19981;-61
2022/04/01 07:02:24;;;;;;;;;;;;;;;1.65;63.42;98722.34;5088992;28;19928;-61
2022/04/01 07:04:49;;;;;;;;;;;;;;;1.86;62.52;98726.66;5084426;28;19924;-61
2022/04/01 07:07:15;;;;;;;;;;;;;;;1.86;63.07;98730.06;5089588;28;20024;-62
2022/04/01 07:09:40;;;;;;;;;;;;;;;1.91;63.31;98719.00;5090395;28;19920;-63
2022/04/01 07:12:06;;;;;;;;;;;;;;;1.99;62.38;98716.22;5092165;28;20037;-60
2022/04/01 07:14:32;;;;;;;;;;;;;;;2.32;63.36;98715.44;5055082;28;19928;-62
2022/04/01 07:16:58;;;;;;;;;;;;;;;2.48;61.98;98707.22;5071328;28;19974;-61
2022/04/01 07:19:23;;;;;;;;;;;;;;;2.47;62.82;98706.41;5069185;28;19924;-61
2022/04/01 07:21:49;;;;;;;;;;;;;;;2.69;61.12;98716.66;5088778;28;19928;-62
2022/04/01 07:24:14;;;;;;;;;;;;;;;2.74;62.28;98714.25;5089350;28;19924;-61
2022/04/01 07:26:41;;;;;;;;;;;;;;;2.77;61.46;98726.94;5080166;28;20389;-61
2022/04/01 07:29:06;;;;;;;;;;;;;;;2.92;60.12;98717.03;5070889;28;20302;-62
2022/04/01 07:34:21;;;;;;;;;;;;;;;2.92;61.19;98709.19;5076536;28;19953;-62
2022/04/01 07:36:47;;;;;;;;;;;;;;;3.22;60.11;98721.00;5090112;28;19928;-60
2022/04/01 07:39:13;;;;;;;;;;;;;;;3.12;59.99;98717.00;5077335;28;19924;-59
2022/04/01 07:41:39;;;;;;;;;;;;;;;3.09;60.33;98722.66;5091664;28;20004;-59
2022/04/01 07:44:05;;;;;;;;;;;;;;;2.91;60.16;98718.06;5085389;28;20362;-61
2022/04/01 07:46:30;;;;;;;;;;;;;;;2.78;60.26;98731.16;5090109;28;19924;-60
2022/04/01 07:48:55;;;;;;;;;;;;;;;2.80;61.33;98726.53;5089405;28;20309;-60
2022/04/01 07:51:21;;;;;;;;;;;;;;;2.72;60.97;98727.53;5088305;28;19928;-61
2022/04/01 07:53:46;;;;;;;;;;;;;;;2.78;60.73;98725.91;5088851;28;19951;-62
2022/04/01 07:56:12;;;;;;;;;;;;;;;2.74;60.56;98735.19;5089970;28;20320;-60
2022/04/01 07:58:38;;;;;;;;;;;;;;;2.84;60.55;98721.69;5087848;28;19932;-59
2022/04/01 08:01:03;;;;;;;;;;;;;;;2.92;60.07;98724.09;5076607;28;19924;-62
2022/04/01 08:03:29;;;;;;;;;;;;;;;2.94;59.77;98724.66;5050392;28;19943;-62
2022/04/01 08:05:54;;;;;;;;;;;;;;;2.83;59.90;98720.88;5069400;28;19930;-61
2022/04/01 08:08:20;;;;;;;;;;;;;;;3.00;59.99;98721.28;5068495;28;19951;-61
2022/04/01 08:10:46;;;;;;;;;;;;;;;3.13;58.84;98730.91;5072030;28;20018;-60
2022/04/01 08:13:11;;;;;;;;;;;;;;;3.05;59.11;98720.63;5089794;28;20033;-65
2022/04/01 08:15:37;;;;;;;;;;;;;;;3.01;58.83;98735.16;5075776;28;20502;-63
2022/04/01 08:18:03;;;;;;;;;;;;;;;3.22;58.75;98727.03;5086865;28;19993;-63
2022/04/01 08:20:28;;;;;;;;;;;;;;;3.28;58.38;98728.03;5091055;28;19928;-64
2022/04/01 08:22:54;;;;;;;;;;;;;;;3.28;58.42;98730.66;5088222;28;20446;-62
2022/04/01 08:25:19;;;;;;;;;;;;;;;3.36;58.19;98727.81;5090021;28;20354;-63
2022/04/01 08:27:45;;;;;;;;;;;;;;;3.39;58.81;98733.44;5090681;28;19928;-64
2022/04/01 08:30:11;;;;;;;;;;;;;;;3.46;57.61;98733.41;5088694;28;19973;-63
2022/04/01 08:32:37;;;;;;;;;;;;;;;3.56;57.84;98725.09;5090287;28;19928;-64
2022/04/01 08:35:03;;;;;;;;;;;;;;;3.67;57.18;98737.56;5090941;28;20423;-64
2022/04/01 08:37:29;;;;;;;;;;;;;;;3.54;56.39;98730.56;5073073;28;19928;-64
2022/04/01 08:39:55;;;;;;;;;;;;;;;3.61;56.76;98728.72;5091237;28;20359;-63
2022/04/01 08:42:20;;;;;;;;;;;;;;;3.54;56.23;98743.66;5091216;28;19973;-63
2022/04/01 08:44:46;;;;;;;;;;;;;;;3.50;56.47;98745.09;5089867;28;19947;-63
2022/04/01 08:47:12;;;;;;;;;;;;;;;3.29;56.37;98740.13;5090880;28;20380;-63
2022/04/01 08:49:38;;;;;;;;;;;;;;;3.40;56.75;98737.66;5091104;28;19928;-63
2022/04/01 08:52:04;;;;;;;;;;;;;;;3.25;56.22;98736.31;5089093;28;19935;-62
2022/04/01 08:54:33;;;;;;;;;;;;;;;3.27;56.75;98742.94;5088628;28;19924;-62
2022/04/01 08:56:59;;;;;;;;;;;;;;;3.34;56.32;98748.16;5091063;28;19935;-64
2022/04/01 08:59:28;;;;;;;;;;;;;;;3.45;55.89;98742.28;5089189;28;19924;-62
2022/04/01 09:01:56;;;;;;;;;;;;;;;3.55;55.61;98742.66;5087993;28;20401;-63
2022/04/01 09:04:22;;;;;;;;;;;;;;;3.62;55.17;98732.97;5088573;28;19931;-66
2022/04/01 09:06:48;;;;;;;;;;;;;;;3.86;54.73;98731.44;5087137;28;19928;-64
2022/04/01 09:09:24;;;;;;;;;;;;;;;4.11;53.36;98725.44;5089139;28;20102;-64
2022/04/01 09:12:08;;;;;;;;;;;;;;;4.19;53.14;98732.25;5090467;28;20047;-63
2022/04/01 09:14:34;;;;;;;;;;;;;;;4.29;53.11;98733.41;5088198;28;19930;-63
2022/04/01 09:17:01;;;;;;;;;;;;;;;4.02;53.62;98731.94;5093648;28;20026;-63
2022/04/01 09:19:32;;;;;;;;;;;;;;;3.91;53.53;98743.09;5042385;28;20380;-62
2022/04/01 09:21:57;;;;;;;;;;;;;;;4.08;54.46;98738.97;5091960;28;19928;-64
2022/04/01 09:24:23;;;;;;;;;;;;;;;4.17;54.26;98731.66;5093508;28;19924;-63
2022/04/01 09:26:53;;;;;;;;;;;;;;;4.26;53.31;98739.03;5092050;28;19934;-63
2022/04/01 09:29:19;;;;;;;;;;;;;;;4.06;53.80;98744.44;5073286;28;19928;-66
2022/04/01 09:31:44;;;;;;;;;;;;;;;4.00;54.47;98739.22;5090944;28;19935;-63
2022/04/01 09:34:13;;;;;;;;;;;;;;;4.01;53.94;98739.00;5091508;28;19924;-62
2022/04/01 09:36:41;;;;;;;;;;;;;;;3.94;54.80;98733.00;5059109;28;20350;-65
2022/04/01 09:39:08;;;;;;;;;;;;;;;3.91;54.26;98735.22;5092529;28;19978;-63
2022/04/01 09:41:37;;;;;;;;;;;;;;;3.95;54.10;98749.53;5090055;28;19924;-64
2022/04/01 09:44:35;;;;;;;;;;;;;;;3.79;54.12;98740.34;5072590;28;19928;-63
2022/04/01 09:47:01;;;;;;;;;;;;;;;3.97;53.86;98745.69;5070558;28;19929;-63
2022/04/01 09:49:39;;;;;;;;;;;;;;;3.98;53.70;98755.16;5071646;28;20598;-63
2022/04/01 09:52:13;;;;;;;;;;;;;;;3.98;53.94;98741.25;5093389;28;20397;-62
2022/04/01 09:54:47;;;;;;;;;;;;;;;3.95;54.22;98731.19;5042425;28;19924;-62
2022/04/01 09:57:13;;;;;;;;;;;;;;;3.97;53.87;98729.97;5091604;28;19942;-62
2022/04/01 09:59:40;;;;;;;;;;;;;;;4.10;52.79;98723.84;5090004;28;19928;-64
2022/04/01 10:02:06;;;;;;;;;;;;;;;4.09;53.30;98722.25;5080865;28;19928;-63
2022/04/01 10:04:31;;;;;;;;;;;;;;;4.27;52.41;98729.38;5080502;28;19924;-64
2022/04/01 10:06:57;;;;;;;;;;;;;;;4.18;52.51;98728.03;5079137;28;19928;-62
2022/04/01 10:09:23;;;;;;;;;;;;;;;4.17;52.28;98721.97;5087261;28;19924;-63
2022/04/01 10:11:49;;;;;;;;;;;;;;;4.27;52.48;98717.06;5087687;28;19932;-61
2022/04/01 10:14:16;;;;;;;;;;;;;;;4.45;51.09;98721.56;5069974;28;20390;-65
2022/04/01 10:16:42;;;;;;;;;;;;;;;4.49;51.11;98725.38;5074709;28;20273;-62
2022/04/01 10:19:11;;;;;;;;;;;;;;;4.37;51.72;98718.41;5072380;28;19936;-65
2022/04/01 10:21:37;;;;;;;;;;;;;;;4.36;51.90;98720.22;5073633;28;19963;-63
2022/04/01 10:24:09;;;;;;;;;;;;;;;4.53;51.48;98733.63;5070853;28;19982;-62
2022/04/01 10:26:35;;;;;;;;;;;;;;;4.47;51.57;98719.53;5055669;28;20404;-61
2022/04/01 10:29:02;;;;;;;;;;;;;;;4.39;51.58;98719.81;5067761;28;19928;-63
2022/04/01 10:31:27;;;;;;;;;;;;;;;4.32;51.30;98700.66;5069719;28;19920;-62
2022/04/01 10:33:53;;;;;;;;;;;;;;;4.33;51.45;98703.09;5071535;28;19935;-61
2022/04/01 10:36:26;;;;;;;;;;;;;;;4.23;51.87;98697.50;5053411;28;19924;-61
2022/04/01 10:38:59;;;;;;;;;;;;;;;4.37;51.60;98698.22;5067776;28;20498;-60
2022/04/01 10:41:24;;;;;;;;;;;;;;;4.62;50.51;98703.47;5069423;28;20289;-60
2022/04/01 10:43:51;;;;;;;;;;;;;;;4.87;49.85;98689.50;5069538;28;19973;-59
2022/04/01 10:46:17;;;;;;;;;;;;;;;4.91;49.63;98701.16;5068709;28;20289;-62
2022/04/01 10:52:00;;;;;;;;;;;;;;;4.80;49.45;98684.31;5069707;28;20480;-60
2022/04/01 10:54:26;;;;;;;;;;;;;;;4.67;49.61;98671.31;5051955;28;19932;-62
2022/04/01 10:56:55;;;;;;;;;;;;;;;4.94;48.69;98672.66;5070759;28;19935;-62
2022/04/01 10:59:27;;;;;;;;;;;;;;;5.18;48.04;98670.19;5069777;28;20416;-62
2022/04/01 11:01:52;;;;;;;;;;;;;;;5.31;47.69;98672.66;5088097;28;19927;-62
2022/04/01 11:04:18;;;;;;;;;;;;;;;5.03;47.37;98667.94;5082250;28;19974;-62
2022/04/01 11:07:05;;;;;;;;;;;;;;;4.71;48.02;98683.81;5072316;28;19964;-63
2022/04/01 11:09:40;;;;;;;;;;;;;;;4.63;48.68;98664.91;5073561;28;19924;-61
2022/04/01 11:12:14;;;;;;;;;;;;;;;4.94;48.65;98649.03;5076178;28;19921;-62
2022/04/01 11:14:56;;;;;;;;;;;;;;;5.27;47.76;98647.84;5093775;28;19924;-63
2022/04/01 11:17:26;;;;;;;;;;;;;;;5.45;46.75;98653.06;5088661;28;19974;-63
2022/04/01 11:20:00;;;;;;;;;;;;;;;5.35;46.93;98657.22;5077006;28;20018;-62
2022/04/01 11:22:36;;;;;;;;;;;;;;;5.44;46.33;98640.97;5085358;28;19935;-60
2022/04/01 11:25:01;;;;;;;;;;;;;;;5.46;46.50;98649.41;5069772;28;20058;-62
2022/04/01 11:27:28;;;;;;;;;;;;;;;5.23;47.19;98629.09;5069396;28;19932;-59
2022/04/01 11:30:07;;;;;;;;;;;;;;;5.31;46.87;98637.69;5063183;28;19946;-62
2022/04/01 11:32:36;;;;;;;;;;;;;;;5.09;47.62;98646.03;5067066;28;19957;-60
2022/04/01 11:35:02;;;;;;;;;;;;;;;5.09;48.25;98622.41;5049797;28;19924;-61
2022/04/01 11:37:28;;;;;;;;;;;;;;;5.03;48.03;98640.84;5066990;28;19952;-63
2022/04/01 11:40:06;;;;;;;;;;;;;;;5.11;48.18;98628.22;5067981;28;20340;-62
2022/04/01 11:42:32;;;;;;;;;;;;;;;5.10;47.66;98610.84;5069818;28;20445;-63
2022/04/01 11:44:59;;;;;;;;;;;;;;;5.28;47.43;98614.47;5068404;28;19971;-61
2022/04/01 11:47:27;;;;;;;;;;;;;;;5.15;47.57;98599.69;5068601;28;19983;-63
2022/04/01 11:50:06;;;;;;;;;;;;;;;4.94;47.79;98604.38;5068708;28;19931;-62
2022/04/01 11:52:39;;;;;;;;;;;;;;;5.02;47.04;98598.00;5069205;28;19935;-64
2022/04/01 11:55:10;;;;;;;;;;;;;;;5.19;46.99;98595.59;5066258;28;19924;-64
2022/04/01 11:57:36;;;;;;;;;;;;;;;5.46;47.03;98591.56;5066978;28;19931;-60
2022/04/01 12:00:02;;;;;;;;;;;;;;;5.51;45.58;98583.03;5069019;28;19924;-58
2022/04/01 12:02:38;;;;;;;;;;;;;;;5.47;45.47;98595.81;5052390;28;19929;-62
2022/04/01 12:05:03;;;;;;;;;;;;;;;5.19;46.26;98585.09;5068286;28;19925;-62
2022/04/01 12:10:19;;;;;;;;;;;;;;;4.89;46.15;98566.66;5068486;28;20444;-64
2022/04/01 12:12:54;;;;;;;;;;;;;;;4.98;45.72;98573.22;5068261;28;19993;-61
2022/04/01 12:15:31;;;;;;;;;;;;;;;5.07;45.72;98577.16;5067851;28;19933;-63
2022/04/01 12:17:57;;;;;;;;;;;;;;;5.17;45.30;98563.47;5068821;28;19928;-62
2022/04/01 12:20:22;;;;;;;;;;;;;;;5.30;45.07;98560.69;5069704;28;20014;-60
2022/04/01 12:22:51;;;;;;;;;;;;;;;5.31;45.08;98562.28;5067895;28;19941;-62
2022/04/01 12:25:16;;;;;;;;;;;;;;;5.18;44.95;98552.75;5067022;28;19946;-62
2022/04/01 12:27:58;;;;;;;;;;;;;;;5.14;44.78;98575.22;5067792;28;20442;-64
2022/04/01 12:30:32;;;;;;;;;;;;;;;5.09;44.38;98566.41;5089721;28;19928;-61
2022/04/01 12:33:01;;;;;;;;;;;;;;;5.04;44.87;98556.56;5088256;28;20459;-60
2022/04/01 12:35:27;;;;;;;;;;;;;;;5.04;44.26;98561.03;5071857;28;19963;-60
2022/04/01 12:38:03;;;;;;;;;;;;;;;5.09;44.60;98558.53;5071612;28;19928;-64
2022/04/01 12:40:33;;;;;;;;;;;;;;;5.03;44.46;98543.66;5075879;28;19928;-60
2022/04/01 12:43:02;;;;;;;;;;;;;;;4.91;43.91;98543.59;5055827;28;20301;-59
2022/04/01 12:45:29;;;;;;;;;;;;;;;4.92;44.43;98574.91;5021460;28;19928;-60
2022/04/01 12:47:56;;;;;;;;;;;;;;;4.91;43.84;98539.16;5070646;28;19928;-59
2022/04/01 12:50:32;;;;;;;;;;;;;;;4.86;43.63;98544.28;5071384;28;19924;-61
2022/04/01 12:53:14;;;;;;;;;;;;;;;4.71;44.18;98546.47;5060366;28;19929;-60
2022/04/01 12:55:42;;;;;;;;;;;;;;;4.71;43.72;98542.03;5050739;28;19978;-60
2022/04/01 12:58:12;;;;;;;;;;;;;;;4.72;43.67;98519.19;5064138;28;19928;-61
2022/04/01 13:00:38;;;;;;;;;;;;;;;4.70;44.10;98523.84;5075395;28;20409;-61
2022/04/01 13:03:03;;;;;;;;;;;;;;;4.73;43.77;98532.09;5072188;28;19963;-63
2022/04/01 13:05:29;;;;;;;;;;;;;;;4.77;44.13;98528.03;5078445;28;20029;-62
2022/04/01 13:07:54;;;;;;;;;;;;;;;4.76;43.90;98523.81;5073243;28;20039;-59
2022/04/01 13:10:21;;;;;;;;;;;;;;;4.77;43.35;98524.59;5073134;28;20081;-61
2022/04/01 13:12:47;;;;;;;;;;;;;;;4.78;43.37;98532.22;5071264;28;19928;-59
2022/04/01 13:15:13;;;;;;;;;;;;;;;4.73;43.32;98523.41;5072246;28;20030;-60
2022/04/01 13:17:41;;;;;;;;;;;;;;;4.69;42.71;98509.94;5070868;28;20010;-61
2022/04/01 13:20:08;;;;;;;;;;;;;;;4.65;42.68;98539.50;5069574;28;19931;-61
2022/04/01 13:22:33;;;;;;;;;;;;;;;4.63;42.94;98510.81;5071274;28;20286;-63